sensor_id;sensor_type;location;lat;lon;timestamp;pressure;altitude;pressure_sealevel;temperature;humidity
38022;BME280;23832;43.216;27.946;2023-06-05T00:01:33;101303.50;;;20.45;56.63
38022;BME280;23832;43.216;27.946;2023-06-05T00:03:35;101304.25;;;20.52;56.32
38022;BME280;23832;43.216;27.946;2023-06-05T00:05:37;101302.78;;;20.31;57.52
38022;BME280;23832;43.216;27.946;2023-06-05T00:07:39;101304.84;;;20.54;56.64
38022;BME280;23832;43.216;27.946;2023-06-05T00:09:41;101293.38;;;20.47;56.82
38022;BME280;23832;43.216;27.946;2023-06-05T00:11:43;101296.53;;;20.37;57.16
38022;BME280;23832;43.216;27.946;2023-06-05T00:13:44;101298.31;;;20.25;57.77
38022;BME280;23832;43.216;27.946;2023-06-05T00:15:47;101299.41;;;20.17;58.40
38022;BME280;23832;43.216;27.946;2023-06-05T00:17:51;101294.25;;;20.40;57.78
38022;BME280;23832;43.216;27.946;2023-06-05T00:19:55;101297.59;;;20.11;58.55
38022;BME280;23832;43.216;27.946;2023-06-05T00:21:58;101294.38;;;20.02;58.29
38022;BME280;23832;43.216;27.946;2023-06-05T00:24:00;101295.47;;;20.20;57.45
38022;BME280;23832;43.216;27.946;2023-06-05T00:26:02;101291.38;;;20.17;57.27
38022;BME280;23832;43.216;27.946;2023-06-05T00:28:03;101287.38;;;20.26;56.81
38022;BME280;23832;43.216;27.946;2023-06-05T00:30:05;101288.25;;;20.20;56.59
38022;BME280;23832;43.216;27.946;2023-06-05T00:32:08;101284.97;;;20.18;56.82
38022;BME280;23832;43.216;27.946;2023-06-05T00:34:11;101290.81;;;20.33;56.50
38022;BME280;23832;43.216;27.946;2023-06-05T00:36:13;101291.63;;;20.34;56.30
38022;BME280;23832;43.216;27.946;2023-06-05T00:38:15;101298.22;;;20.13;56.68
38022;BME280;23832;43.216;27.946;2023-06-05T00:40:17;101292.47;;;19.84;58.62
38022;BME280;23832;43.216;27.946;2023-06-05T00:42:19;101297.28;;;20.26;57.19
38022;BME280;23832;43.216;27.946;2023-06-05T00:44:21;101294.78;;;20.06;58.01
38022;BME280;23832;43.216;27.946;2023-06-05T00:46:23;101294.88;;;20.18;57.38
38022;BME280;23832;43.216;27.946;2023-06-05T00:48:25;101290.47;;;20.05;57.82
38022;BME280;23832;43.216;27.946;2023-06-05T00:50:28;101290.06;;;20.26;56.37
38022;BME280;23832;43.216;27.946;2023-06-05T00:52:31;101289.44;;;20.06;57.19
38022;BME280;23832;43.216;27.946;2023-06-05T00:54:33;101282.09;;;19.95;57.61
38022;BME280;23832;43.216;27.946;2023-06-05T00:56:35;101281.28;;;19.94;57.43
38022;BME280;23832;43.216;27.946;2023-06-05T00:58:37;101279.31;;;20.08;56.52
38022;BME280;23832;43.216;27.946;2023-06-05T01:00:39;101281.53;;;20.11;56.38
38022;BME280;23832;43.216;27.946;2023-06-05T01:02:40;101277.78;;;20.19;56.25
38022;BME280;23832;43.216;27.946;2023-06-05T01:04:42;101275.69;;;20.21;56.30
38022;BME280;23832;43.216;27.946;2023-06-05T01:06:45;101272.88;;;20.16;56.23
38022;BME280;23832;43.216;27.946;2023-06-05T01:08:47;101272.56;;;20.05;57.21
38022;BME280;23832;43.216;27.946;2023-06-05T01:10:50;101266.81;;;20.02;57.09
38022;BME280;23832;43.216;27.946;2023-06-05T01:12:53;101269.78;;;20.12;56.92
38022;BME280;23832;43.216;27.946;2023-06-05T01:14:59;101271.50;;;20.06;56.91
38022;BME280;23832;43.216;27.946;2023-06-05T01:17:03;101272.88;;;20.16;56.39
38022;BME280;23832;43.216;27.946;2023-06-05T01:19:08;101271.19;;;19.96;56.42
38022;BME280;23832;43.216;27.946;2023-06-05T01:21:14;101192.38;;;19.42;56.43
38022;BME280;23832;43.216;27.946;2023-06-05T01:23:18;101271.88;;;20.10;55.35
38022;BME280;23832;43.216;27.946;2023-06-05T01:25:25;101278.88;;;20.11;55.16
38022;BME280;23832;43.216;27.946;2023-06-05T01:27:30;101269.66;;;20.07;55.23
38022;BME280;23832;43.216;27.946;2023-06-05T01:29:35;101271.53;;;20.25;54.03
38022;BME280;23832;43.216;27.946;2023-06-05T01:31:39;101269.47;;;19.77;55.71
38022;BME280;23832;43.216;27.946;2023-06-05T01:33:43;101265.56;;;20.04;55.09
38022;BME280;23832;43.216;27.946;2023-06-05T01:35:50;101267.47;;;19.72;56.16
38022;BME280;23832;43.216;27.946;2023-06-05T01:37:51;101272.59;;;19.99;55.33
38022;BME280;23832;43.216;27.946;2023-06-05T01:39:56;101275.19;;;19.87;55.61
38022;BME280;23832;43.216;27.946;2023-06-05T01:41:58;101273.09;;;19.89;55.51
38022;BME280;23832;43.216;27.946;2023-06-05T01:44:00;101275.28;;;19.99;55.21
38022;BME280;23832;43.216;27.946;2023-06-05T01:46:03;101268.56;;;19.90;55.74
38022;BME280;23832;43.216;27.946;2023-06-05T01:48:05;101281.41;;;20.06;55.21
38022;BME280;23832;43.216;27.946;2023-06-05T01:50:09;101278.72;;;19.81;55.97
38022;BME280;23832;43.216;27.946;2023-06-05T01:52:12;101282.16;;;19.88;55.61
38022;BME280;23832;43.216;27.946;2023-06-05T01:54:14;101273.19;;;20.01;54.73
38022;BME280;23832;43.216;27.946;2023-06-05T01:56:20;101270.03;;;19.85;54.98
38022;BME280;23832;43.216;27.946;2023-06-05T01:58:24;101272.06;;;20.15;53.57
38022;BME280;23832;43.216;27.946;2023-06-05T02:00:26;101277.78;;;19.94;54.18
38022;BME280;23832;43.216;27.946;2023-06-05T02:02:28;101274.38;;;19.87;54.24
38022;BME280;23832;43.216;27.946;2023-06-05T02:04:30;101273.06;;;19.96;54.55
38022;BME280;23832;43.216;27.946;2023-06-05T02:06:32;101273.75;;;19.84;54.82
38022;BME280;23832;43.216;27.946;2023-06-05T02:08:43;101270.06;;;20.04;54.19
38022;BME280;23832;43.216;27.946;2023-06-05T02:10:45;101265.97;;;19.76;55.13
38022;BME280;23832;43.216;27.946;2023-06-05T02:12:48;101266.09;;;19.63;55.51
38022;BME280;23832;43.216;27.946;2023-06-05T02:14:50;101259.97;;;19.56;56.21
38022;BME280;23832;43.216;27.946;2023-06-05T02:16:52;101258.56;;;19.47;56.71
38022;BME280;23832;43.216;27.946;2023-06-05T02:18:54;101263.16;;;19.71;55.88
38022;BME280;23832;43.216;27.946;2023-06-05T02:20:57;101269.84;;;19.49;56.52
38022;BME280;23832;43.216;27.946;2023-06-05T02:22:59;101269.47;;;19.45;56.90
38022;BME280;23832;43.216;27.946;2023-06-05T02:25:01;101263.25;;;19.58;56.48
38022;BME280;23832;43.216;27.946;2023-06-05T02:27:02;101258.84;;;19.70;55.82
38022;BME280;23832;43.216;27.946;2023-06-05T02:29:07;101258.53;;;19.60;55.77
38022;BME280;23832;43.216;27.946;2023-06-05T02:31:09;101270.91;;;19.79;55.04
38022;BME280;23832;43.216;27.946;2023-06-05T02:33:16;101273.63;;;19.73;54.48
38022;BME280;23832;43.216;27.946;2023-06-05T02:35:18;101273.41;;;19.74;54.48
38022;BME280;23832;43.216;27.946;2023-06-05T02:37:20;101276.03;;;19.81;54.37
38022;BME280;23832;43.216;27.946;2023-06-05T02:39:22;101272.97;;;20.02;53.75
38022;BME280;23832;43.216;27.946;2023-06-05T02:41:25;101271.75;;;20.05;53.66
38022;BME280;23832;43.216;27.946;2023-06-05T02:43:28;101278.69;;;19.88;54.09
38022;BME280;23832;43.216;27.946;2023-06-05T02:45:32;101278.50;;;19.82;54.15
38022;BME280;23832;43.216;27.946;2023-06-05T02:47:34;101280.53;;;19.87;54.42
38022;BME280;23832;43.216;27.946;2023-06-05T02:49:35;101286.91;;;20.11;53.75
38022;BME280;23832;43.216;27.946;2023-06-05T02:51:37;101277.69;;;20.07;54.29
38022;BME280;23832;43.216;27.946;2023-06-05T02:53:39;101280.78;;;20.04;54.84
38022;BME280;23832;43.216;27.946;2023-06-05T02:55:41;101288.81;;;20.04;55.62
38022;BME280;23832;43.216;27.946;2023-06-05T02:57:42;101290.13;;;19.95;56.72
38022;BME280;23832;43.216;27.946;2023-06-05T02:59:44;101292.19;;;19.68;58.82
38022;BME280;23832;43.216;27.946;2023-06-05T03:01:48;101294.88;;;19.93;59.18
38022;BME280;23832;43.216;27.946;2023-06-05T03:03:50;101287.75;;;19.87;60.54
38022;BME280;23832;43.216;27.946;2023-06-05T03:05:53;101294.47;;;19.96;60.38
38022;BME280;23832;43.216;27.946;2023-06-05T03:07:55;101298.81;;;20.15;59.79
38022;BME280;23832;43.216;27.946;2023-06-05T03:09:56;101299.50;;;20.04;61.44
38022;BME280;23832;43.216;27.946;2023-06-05T03:11:58;101304.16;;;20.15;60.98
38022;BME280;23832;43.216;27.946;2023-06-05T03:14:00;101306.25;;;20.13;61.77
38022;BME280;23832;43.216;27.946;2023-06-05T03:16:03;101309.34;;;20.10;61.63
38022;BME280;23832;43.216;27.946;2023-06-05T03:18:06;101300.06;;;20.12;61.67
38022;BME280;23832;43.216;27.946;2023-06-05T03:20:08;101304.09;;;20.22;62.31
38022;BME280;23832;43.216;27.946;2023-06-05T03:22:10;101308.75;;;20.08;63.14
38022;BME280;23832;43.216;27.946;2023-06-05T03:24:13;101308.03;;;20.19;63.03
38022;BME280;23832;43.216;27.946;2023-06-05T03:26:15;101307.28;;;20.12;63.04
38022;BME280;23832;43.216;27.946;2023-06-05T03:28:18;101305.75;;;20.23;61.74
38022;BME280;23832;43.216;27.946;2023-06-05T03:30:20;101307.75;;;20.27;61.30
38022;BME280;23832;43.216;27.946;2023-06-05T03:32:22;101315.44;;;20.42;59.31
38022;BME280;23832;43.216;27.946;2023-06-05T03:34:25;101314.53;;;20.30;59.22
38022;BME280;23832;43.216;27.946;2023-06-05T03:36:26;101318.19;;;20.35;58.99
38022;BME280;23832;43.216;27.946;2023-06-05T03:38:29;101315.44;;;20.24;60.20
38022;BME280;23832;43.216;27.946;2023-06-05T03:40:31;101311.47;;;20.51;58.33
38022;BME280;23832;43.216;27.946;2023-06-05T03:42:33;101313.41;;;20.37;58.57
38022;BME280;23832;43.216;27.946;2023-06-05T03:44:34;101306.59;;;20.41;57.35
38022;BME280;23832;43.216;27.946;2023-06-05T03:46:36;101307.22;;;20.44;57.52
38022;BME280;23832;43.216;27.946;2023-06-05T03:48:38;101309.44;;;20.47;57.77
38022;BME280;23832;43.216;27.946;2023-06-05T03:50:41;101305.59;;;20.61;57.35
38022;BME280;23832;43.216;27.946;2023-06-05T03:52:44;101312.56;;;20.44;57.92
38022;BME280;23832;43.216;27.946;2023-06-05T03:54:52;101306.47;;;20.73;56.97
38022;BME280;23832;43.216;27.946;2023-06-05T03:56:55;101307.44;;;20.97;56.25
38022;BME280;23832;43.216;27.946;2023-06-05T03:59:00;101306.25;;;20.93;55.75
38022;BME280;23832;43.216;27.946;2023-06-05T04:01:09;101306.03;;;20.94;55.20
38022;BME280;23832;43.216;27.946;2023-06-05T04:03:11;101312.28;;;21.07;55.21
38022;BME280;23832;43.216;27.946;2023-06-05T04:05:13;101308.00;;;21.17;55.47
38022;BME280;23832;43.216;27.946;2023-06-05T04:07:17;101316.22;;;21.04;56.50
38022;BME280;23832;43.216;27.946;2023-06-05T04:09:19;101318.22;;;21.27;56.30
38022;BME280;23832;43.216;27.946;2023-06-05T04:11:20;101308.97;;;21.41;56.17
38022;BME280;23832;43.216;27.946;2023-06-05T04:13:22;101316.69;;;21.49;56.34
38022;BME280;23832;43.216;27.946;2023-06-05T04:15:25;101322.75;;;21.57;55.99
38022;BME280;23832;43.216;27.946;2023-06-05T04:17:27;101321.31;;;21.84;55.29
38022;BME280;23832;43.216;27.946;2023-06-05T04:19:28;101322.41;;;22.06;54.34
38022;BME280;23832;43.216;27.946;2023-06-05T04:21:31;101317.88;;;22.07;54.40
38022;BME280;23832;43.216;27.946;2023-06-05T04:23:35;101318.34;;;22.16;54.43
38022;BME280;23832;43.216;27.946;2023-06-05T04:25:37;101324.13;;;21.89;55.60
38022;BME280;23832;43.216;27.946;2023-06-05T04:27:42;101327.03;;;21.76;56.42
38022;BME280;23832;43.216;27.946;2023-06-05T04:29:44;101328.78;;;21.82;56.93
38022;BME280;23832;43.216;27.946;2023-06-05T04:31:46;101332.41;;;21.99;56.80
38022;BME280;23832;43.216;27.946;2023-06-05T04:33:48;101336.22;;;22.22;55.52
38022;BME280;23832;43.216;27.946;2023-06-05T04:35:50;101337.34;;;22.02;56.15
38022;BME280;23832;43.216;27.946;2023-06-05T04:37:53;101343.94;;;22.30;55.28
38022;BME280;23832;43.216;27.946;2023-06-05T04:39:58;101344.13;;;22.63;55.09
38022;BME280;23832;43.216;27.946;2023-06-05T04:42:00;101344.13;;;22.63;55.20
38022;BME280;23832;43.216;27.946;2023-06-05T04:44:01;101348.91;;;22.73;54.95
38022;BME280;23832;43.216;27.946;2023-06-05T04:46:04;101344.09;;;23.10;54.64
38022;BME280;23832;43.216;27.946;2023-06-05T04:48:06;101350.44;;;23.33;53.40
38022;BME280;23832;43.216;27.946;2023-06-05T04:50:07;101351.53;;;23.48;53.09
38022;BME280;23832;43.216;27.946;2023-06-05T04:52:10;101345.97;;;23.38;54.04
38022;BME280;23832;43.216;27.946;2023-06-05T04:54:13;101352.84;;;23.46;53.36
38022;BME280;23832;43.216;27.946;2023-06-05T04:56:16;101355.81;;;23.61;52.10
38022;BME280;23832;43.216;27.946;2023-06-05T04:58:18;101352.34;;;23.77;51.16
38022;BME280;23832;43.216;27.946;2023-06-05T05:00:19;101355.97;;;23.83;51.38
38022;BME280;23832;43.216;27.946;2023-06-05T05:02:21;101358.66;;;24.00;50.43
38022;BME280;23832;43.216;27.946;2023-06-05T05:04:23;101355.53;;;24.25;49.60
38022;BME280;23832;43.216;27.946;2023-06-05T05:06:26;101357.09;;;24.21;49.82
38022;BME280;23832;43.216;27.946;2023-06-05T05:08:27;101361.13;;;24.18;49.98
38022;BME280;23832;43.216;27.946;2023-06-05T05:10:31;101354.91;;;24.34;49.54
38022;BME280;23832;43.216;27.946;2023-06-05T05:12:35;101355.22;;;24.21;50.35
38022;BME280;23832;43.216;27.946;2023-06-05T05:14:37;101366.09;;;24.26;50.56
38022;BME280;23832;43.216;27.946;2023-06-05T05:16:40;101369.41;;;24.67;48.88
38022;BME280;23832;43.216;27.946;2023-06-05T05:18:43;101363.56;;;24.75;48.59
38022;BME280;23832;43.216;27.946;2023-06-05T05:20:45;101373.28;;;24.76;48.56
38022;BME280;23832;43.216;27.946;2023-06-05T05:22:47;101373.03;;;25.16;48.24
38022;BME280;23832;43.216;27.946;2023-06-05T05:24:49;101376.31;;;25.02;48.52
38022;BME280;23832;43.216;27.946;2023-06-05T05:26:51;101375.47;;;25.18;48.26
38022;BME280;23832;43.216;27.946;2023-06-05T05:28:55;101374.84;;;25.11;47.85
38022;BME280;23832;43.216;27.946;2023-06-05T05:30:56;101377.97;;;25.03;48.30
38022;BME280;23832;43.216;27.946;2023-06-05T05:32:58;101375.50;;;25.01;49.29
38022;BME280;23832;43.216;27.946;2023-06-05T05:35:00;101294.72;;;24.68;48.61
38022;BME280;23832;43.216;27.946;2023-06-05T05:37:03;101378.25;;;24.46;50.42
38022;BME280;23832;43.216;27.946;2023-06-05T05:39:04;101382.00;;;25.22;49.29
38022;BME280;23832;43.216;27.946;2023-06-05T05:41:08;101375.41;;;25.35;48.97
38022;BME280;23832;43.216;27.946;2023-06-05T05:43:09;101377.34;;;25.93;47.29
38022;BME280;23832;43.216;27.946;2023-06-05T05:45:12;101375.63;;;26.14;46.90
38022;BME280;23832;43.216;27.946;2023-06-05T05:47:14;101381.31;;;25.59;48.15
38022;BME280;23832;43.216;27.946;2023-06-05T05:49:16;101379.91;;;25.78;47.29
38022;BME280;23832;43.216;27.946;2023-06-05T05:51:18;101374.47;;;25.51;47.63
38022;BME280;23832;43.216;27.946;2023-06-05T05:53:19;101377.44;;;25.50;47.44
38022;BME280;23832;43.216;27.946;2023-06-05T05:55:21;101369.59;;;26.02;46.09
38022;BME280;23832;43.216;27.946;2023-06-05T05:57:23;101382.47;;;25.68;46.92
38022;BME280;23832;43.216;27.946;2023-06-05T05:59:25;101390.91;;;25.98;45.03
38022;BME280;23832;43.216;27.946;2023-06-05T06:01:29;101386.31;;;25.99;44.41
38022;BME280;23832;43.216;27.946;2023-06-05T06:03:32;101391.31;;;26.49;44.53
38022;BME280;23832;43.216;27.946;2023-06-05T06:05:37;101384.88;;;26.55;46.80
38022;BME280;23832;43.216;27.946;2023-06-05T06:07:39;101373.44;;;26.43;45.14
38022;BME280;23832;43.216;27.946;2023-06-05T06:09:43;101386.25;;;26.63;45.78
38022;BME280;23832;43.216;27.946;2023-06-05T06:11:45;101366.81;;;26.66;43.67
38022;BME280;23832;43.216;27.946;2023-06-05T06:13:47;101374.66;;;26.68;44.12
38022;BME280;23832;43.216;27.946;2023-06-05T06:15:49;101369.91;;;26.90;43.25
38022;BME280;23832;43.216;27.946;2023-06-05T06:17:52;101382.13;;;26.98;42.93
38022;BME280;23832;43.216;27.946;2023-06-05T06:19:54;101372.19;;;27.19;41.59
38022;BME280;23832;43.216;27.946;2023-06-05T06:21:55;101369.88;;;26.85;41.19
38022;BME280;23832;43.216;27.946;2023-06-05T06:23:57;101381.44;;;27.28;40.56
38022;BME280;23832;43.216;27.946;2023-06-05T06:25:59;101370.63;;;27.38;40.39
38022;BME280;23832;43.216;27.946;2023-06-05T06:28:01;101366.53;;;27.20;40.93
38022;BME280;23832;43.216;27.946;2023-06-05T06:30:03;101363.03;;;27.40;40.71
38022;BME280;23832;43.216;27.946;2023-06-05T06:32:05;101362.19;;;27.19;40.24
38022;BME280;23832;43.216;27.946;2023-06-05T06:34:09;101369.81;;;27.37;39.89
38022;BME280;23832;43.216;27.946;2023-06-05T06:36:11;101371.69;;;27.32;39.75
38022;BME280;23832;43.216;27.946;2023-06-05T06:38:12;101354.94;;;27.45;40.07
38022;BME280;23832;43.216;27.946;2023-06-05T06:40:14;101371.22;;;27.60;39.34
38022;BME280;23832;43.216;27.946;2023-06-05T06:42:16;101358.50;;;27.61;38.15
38022;BME280;23832;43.216;27.946;2023-06-05T06:44:18;101371.41;;;27.28;37.65
38022;BME280;23832;43.216;27.946;2023-06-05T06:46:20;101372.31;;;27.64;37.65
38022;BME280;23832;43.216;27.946;2023-06-05T06:48:21;101378.47;;;27.24;38.61
38022;BME280;23832;43.216;27.946;2023-06-05T06:50:25;101376.13;;;27.74;37.45
38022;BME280;23832;43.216;27.946;2023-06-05T06:52:26;101381.22;;;27.55;37.57
38022;BME280;23832;43.216;27.946;2023-06-05T06:54:28;101372.31;;;27.64;38.46
38022;BME280;23832;43.216;27.946;2023-06-05T06:56:30;101374.25;;;27.84;38.55
38022;BME280;23832;43.216;27.946;2023-06-05T06:58:32;101372.56;;;27.63;38.96
38022;BME280;23832;43.216;27.946;2023-06-05T07:00:34;101376.97;;;27.89;38.08
38022;BME280;23832;43.216;27.946;2023-06-05T07:02:36;101384.56;;;27.87;38.52
38022;BME280;23832;43.216;27.946;2023-06-05T07:04:38;101383.72;;;27.66;38.79
38022;BME280;23832;43.216;27.946;2023-06-05T07:06:42;101387.56;;;28.32;38.21
38022;BME280;23832;43.216;27.946;2023-06-05T07:08:44;101378.25;;;28.68;38.32
38022;BME280;23832;43.216;27.946;2023-06-05T07:10:46;101388.03;;;28.64;38.03
38022;BME280;23832;43.216;27.946;2023-06-05T07:12:48;101385.09;;;28.25;38.44
38022;BME280;23832;43.216;27.946;2023-06-05T07:14:50;101388.63;;;27.95;38.92
38022;BME280;23832;43.216;27.946;2023-06-05T07:16:52;101380.69;;;28.65;38.00
38022;BME280;23832;43.216;27.946;2023-06-05T07:18:56;101375.41;;;29.14;37.82
38022;BME280;23832;43.216;27.946;2023-06-05T07:20:58;101382.09;;;29.76;37.28
38022;BME280;23832;43.216;27.946;2023-06-05T07:23:01;101379.53;;;29.90;37.42
38022;BME280;23832;43.216;27.946;2023-06-05T07:25:03;101379.97;;;29.68;36.98
38022;BME280;23832;43.216;27.946;2023-06-05T07:27:05;101379.78;;;29.54;37.58
38022;BME280;23832;43.216;27.946;2023-06-05T07:29:08;101383.38;;;29.50;37.63
38022;BME280;23832;43.216;27.946;2023-06-05T07:31:10;101382.94;;;30.11;37.32
38022;BME280;23832;43.216;27.946;2023-06-05T07:33:12;101385.97;;;29.65;37.58
38022;BME280;23832;43.216;27.946;2023-06-05T07:35:14;101386.22;;;29.68;37.86
38022;BME280;23832;43.216;27.946;2023-06-05T07:37:16;101384.34;;;30.03;37.42
38022;BME280;23832;43.216;27.946;2023-06-05T07:39:20;101382.56;;;29.83;38.11
38022;BME280;23832;43.216;27.946;2023-06-05T07:41:22;101387.78;;;30.14;37.63
38022;BME280;23832;43.216;27.946;2023-06-05T07:43:25;101378.63;;;30.00;37.87
38022;BME280;23832;43.216;27.946;2023-06-05T07:45:27;101382.09;;;30.10;37.39
38022;BME280;23832;43.216;27.946;2023-06-05T07:47:29;101380.84;;;30.32;37.34
38022;BME280;23832;43.216;27.946;2023-06-05T07:49:31;101384.66;;;30.31;37.99
38022;BME280;23832;43.216;27.946;2023-06-05T07:51:33;101391.47;;;29.94;38.61
38022;BME280;23832;43.216;27.946;2023-06-05T07:53:35;101382.84;;;29.43;40.29
38022;BME280;23832;43.216;27.946;2023-06-05T07:55:39;101389.19;;;30.40;38.97
38022;BME280;23832;43.216;27.946;2023-06-05T07:57:40;101387.63;;;29.66;39.91
38022;BME280;23832;43.216;27.946;2023-06-05T07:59:42;101376.38;;;28.53;41.23
38022;BME280;23832;43.216;27.946;2023-06-05T08:01:44;101384.50;;;28.64;40.40
38022;BME280;23832;43.216;27.946;2023-06-05T08:03:46;101385.22;;;29.00;39.54
38022;BME280;23832;43.216;27.946;2023-06-05T08:05:47;101391.22;;;28.81;37.42
38022;BME280;23832;43.216;27.946;2023-06-05T08:07:49;101380.91;;;28.94;37.29
38022;BME280;23832;43.216;27.946;2023-06-05T08:09:51;101398.63;;;28.10;37.93
38022;BME280;23832;43.216;27.946;2023-06-05T08:11:54;101383.34;;;28.95;36.97
38022;BME280;23832;43.216;27.946;2023-06-05T08:13:56;101384.78;;;28.62;37.09
38022;BME280;23832;43.216;27.946;2023-06-05T08:15:57;101380.09;;;29.53;36.05
38022;BME280;23832;43.216;27.946;2023-06-05T08:17:59;101381.47;;;29.50;35.97
38022;BME280;23832;43.216;27.946;2023-06-05T08:20:01;101410.00;;;29.37;35.89
38022;BME280;23832;43.216;27.946;2023-06-05T08:22:05;101381.09;;;29.67;35.88
38022;BME280;23832;43.216;27.946;2023-06-05T08:24:07;101381.34;;;30.00;35.52
38022;BME280;23832;43.216;27.946;2023-06-05T08:26:08;101377.69;;;29.85;36.20
38022;BME280;23832;43.216;27.946;2023-06-05T08:28:13;101375.50;;;29.82;35.74
38022;BME280;23832;43.216;27.946;2023-06-05T08:30:15;101369.22;;;29.53;37.16
38022;BME280;23832;43.216;27.946;2023-06-05T08:32:17;101383.19;;;29.26;38.04
38022;BME280;23832;43.216;27.946;2023-06-05T08:34:21;101382.13;;;29.71;37.62
38022;BME280;23832;43.216;27.946;2023-06-05T08:36:24;101394.31;;;29.29;37.81
38022;BME280;23832;43.216;27.946;2023-06-05T08:38:26;101386.72;;;29.31;38.26
38022;BME280;23832;43.216;27.946;2023-06-05T08:40:29;101397.28;;;30.16;35.90
38022;BME280;23832;43.216;27.946;2023-06-05T08:42:32;101383.78;;;29.67;36.71
38022;BME280;23832;43.216;27.946;2023-06-05T08:44:35;101388.91;;;29.74;38.40
38022;BME280;23832;43.216;27.946;2023-06-05T08:46:37;101390.66;;;31.04;37.10
38022;BME280;23832;43.216;27.946;2023-06-05T08:48:42;101387.28;;;30.07;37.47
38022;BME280;23832;43.216;27.946;2023-06-05T08:50:44;101400.69;;;29.59;38.45
38022;BME280;23832;43.216;27.946;2023-06-05T08:52:47;101396.53;;;30.40;37.02
38022;BME280;23832;43.216;27.946;2023-06-05T08:54:50;101400.38;;;30.34;36.67
38022;BME280;23832;43.216;27.946;2023-06-05T08:56:52;101387.88;;;30.86;35.16
38022;BME280;23832;43.216;27.946;2023-06-05T08:58:54;101389.97;;;31.55;34.68
38022;BME280;23832;43.216;27.946;2023-06-05T09:00:57;101393.34;;;31.85;33.77
38022;BME280;23832;43.216;27.946;2023-06-05T09:03:00;101393.38;;;31.28;33.99
38022;BME280;23832;43.216;27.946;2023-06-05T09:05:02;101394.06;;;32.23;33.78
38022;BME280;23832;43.216;27.946;2023-06-05T09:07:04;101390.69;;;31.80;34.23
38022;BME280;23832;43.216;27.946;2023-06-05T09:09:07;101399.09;;;31.27;33.88
38022;BME280;23832;43.216;27.946;2023-06-05T09:11:19;101388.91;;;31.14;34.26
38022;BME280;23832;43.216;27.946;2023-06-05T09:13:21;101397.69;;;30.87;34.94
38022;BME280;23832;43.216;27.946;2023-06-05T09:15:25;101405.16;;;30.76;35.42
38022;BME280;23832;43.216;27.946;2023-06-05T09:17:29;101409.88;;;30.89;35.82
38022;BME280;23832;43.216;27.946;2023-06-05T09:19:35;101394.09;;;31.34;34.46
38022;BME280;23832;43.216;27.946;2023-06-05T09:21:37;101392.66;;;30.75;35.04
38022;BME280;23832;43.216;27.946;2023-06-05T09:23:40;101394.72;;;30.83;34.17
38022;BME280;23832;43.216;27.946;2023-06-05T09:25:45;101405.44;;;31.17;33.12
38022;BME280;23832;43.216;27.946;2023-06-05T09:27:52;101395.84;;;30.24;34.93
38022;BME280;23832;43.216;27.946;2023-06-05T09:30:07;101397.03;;;31.94;33.38
38022;BME280;23832;43.216;27.946;2023-06-05T09:32:09;101393.56;;;30.89;32.79
38022;BME280;23832;43.216;27.946;2023-06-05T09:34:12;101390.50;;;31.39;32.77
38022;BME280;23832;43.216;27.946;2023-06-05T09:36:21;101393.03;;;30.87;31.73
38022;BME280;23832;43.216;27.946;2023-06-05T09:38:26;101386.31;;;31.03;32.57
38022;BME280;23832;43.216;27.946;2023-06-05T09:40:36;101391.50;;;31.43;32.40
38022;BME280;23832;43.216;27.946;2023-06-05T09:42:38;101396.56;;;31.12;33.12
38022;BME280;23832;43.216;27.946;2023-06-05T09:44:40;101387.19;;;31.18;31.93
38022;BME280;23832;43.216;27.946;2023-06-05T09:46:52;101398.28;;;32.15;30.93
38022;BME280;23832;43.216;27.946;2023-06-05T09:48:57;101398.94;;;31.75;30.84
38022;BME280;23832;43.216;27.946;2023-06-05T09:51:08;101390.41;;;30.53;32.07
38022;BME280;23832;43.216;27.946;2023-06-05T09:53:12;101387.31;;;30.65;32.56
38022;BME280;23832;43.216;27.946;2023-06-05T09:55:16;101400.31;;;31.16;31.83
38022;BME280;23832;43.216;27.946;2023-06-05T09:57:20;101408.44;;;31.21;31.16
38022;BME280;23832;43.216;27.946;2023-06-05T09:59:23;101398.69;;;29.75;33.56
38022;BME280;23832;43.216;27.946;2023-06-05T10:01:28;101396.34;;;29.92;33.98
38022;BME280;23832;43.216;27.946;2023-06-05T10:03:30;101399.25;;;30.93;33.57
38022;BME280;23832;43.216;27.946;2023-06-05T10:05:33;101400.50;;;31.24;32.52
38022;BME280;23832;43.216;27.946;2023-06-05T10:07:37;101390.88;;;30.60;33.36
38022;BME280;23832;43.216;27.946;2023-06-05T10:09:40;101394.13;;;31.10;33.32
38022;BME280;23832;43.216;27.946;2023-06-05T10:11:42;101386.00;;;32.18;32.16
38022;BME280;23832;43.216;27.946;2023-06-05T10:13:44;101392.13;;;31.40;33.02
38022;BME280;23832;43.216;27.946;2023-06-05T10:15:46;101388.72;;;31.67;32.94
38022;BME280;23832;43.216;27.946;2023-06-05T10:17:49;101393.78;;;30.69;34.21
38022;BME280;23832;43.216;27.946;2023-06-05T10:19:50;101398.06;;;30.22;33.82
38022;BME280;23832;43.216;27.946;2023-06-05T10:21:52;101379.81;;;30.51;32.01
38022;BME280;23832;43.216;27.946;2023-06-05T10:23:57;101380.56;;;30.28;32.24
38022;BME280;23832;43.216;27.946;2023-06-05T10:25:59;101380.03;;;30.31;32.59
38022;BME280;23832;43.216;27.946;2023-06-05T10:28:18;101382.91;;;30.64;32.29
38022;BME280;23832;43.216;27.946;2023-06-05T10:32:44;101385.91;;;29.31;33.47
38022;BME280;23832;43.216;27.946;2023-06-05T10:34:56;101370.69;;;29.74;33.58
38022;BME280;23832;43.216;27.946;2023-06-05T10:39:27;101401.63;;;28.08;37.06